sensor_id;sensor_type;location;lat;lon;timestamp;temperature;humidity
7648;DHT22;3866;48.020;11.720;2022-09-21T00:01:53;5.70;99.90
7648;DHT22;3866;48.020;11.720;2022-09-21T00:04:19;5.70;99.90
7648;DHT22;3866;48.020;11.720;2022-09-21T00:06:48;5.80;99.90
7648;DHT22;3866;48.020;11.720;2022-09-21T00:09:14;5.80;99.90
7648;DHT22;3866;48.020;11.720;2022-09-21T00:11:41;5.80;99.90
7648;DHT22;3866;48.020;11.720;2022-09-21T00:14:11;5.70;99.90
7648;DHT22;3866;48.020;11.720;2022-09-21T00:16:39;5.70;99.90
7648;DHT22;3866;48.020;11.720;2022-09-21T00:19:06;5.60;99.90
7648;DHT22;3866;48.020;11.720;2022-09-21T00:21:34;5.50;99.90
7648;DHT22;3866;48.020;11.720;2022-09-21T00:24:04;5.40;99.90
7648;DHT22;3866;48.020;11.720;2022-09-21T00:26:31;5.40;99.90
7648;DHT22;3866;48.020;11.720;2022-09-21T00:29:00;5.30;99.90
7648;DHT22;3866;48.020;11.720;2022-09-21T00:31:28;5.40;99.90
7648;DHT22;3866;48.020;11.720;2022-09-21T00:33:56;5.50;99.90
7648;DHT22;3866;48.020;11.720;2022-09-21T00:36:25;5.50;99.90
7648;DHT22;3866;48.020;11.720;2022-09-21T00:38:53;5.70;99.90
7648;DHT22;3866;48.020;11.720;2022-09-21T00:41:23;5.60;99.90
7648;DHT22;3866;48.020;11.720;2022-09-21T00:46:51;5.60;99.90
7648;DHT22;3866;48.020;11.720;2022-09-21T00:49:19;5.70;99.90
7648;DHT22;3866;48.020;11.720;2022-09-21T00:51:46;5.80;99.90
7648;DHT22;3866;48.020;11.720;2022-09-21T00:54:18;5.70;99.90
7648;DHT22;3866;48.020;11.720;2022-09-21T00:56:48;5.60;99.90
7648;DHT22;3866;48.020;11.720;2022-09-21T00:59:16;5.40;99.90
7648;DHT22;3866;48.020;11.720;2022-09-21T01:01:44;5.40;99.90
7648;DHT22;3866;48.020;11.720;2022-09-21T01:04:11;5.30;99.90
7648;DHT22;3866;48.020;11.720;2022-09-21T01:06:40;5.30;99.90
7648;DHT22;3866;48.020;11.720;2022-09-21T01:09:07;5.20;99.90
7648;DHT22;3866;48.020;11.720;2022-09-21T01:11:42;5.30;99.90
7648;DHT22;3866;48.020;11.720;2022-09-21T01:14:27;5.30;99.90
7648;DHT22;3866;48.020;11.720;2022-09-21T01:17:05;5.40;99.90
7648;DHT22;3866;48.020;11.720;2022-09-21T01:20:19;5.60;99.90
7648;DHT22;3866;48.020;11.720;2022-09-21T01:23:03;5.60;99.90
7648;DHT22;3866;48.020;11.720;2022-09-21T01:25:40;5.70;99.90
7648;DHT22;3866;48.020;11.720;2022-09-21T01:28:20;5.70;99.90
7648;DHT22;3866;48.020;11.720;2022-09-21T01:30:53;5.80;99.90
7648;DHT22;3866;48.020;11.720;2022-09-21T01:33:23;5.70;99.90
7648;DHT22;3866;48.020;11.720;2022-09-21T01:35:55;5.60;99.90
7648;DHT22;3866;48.020;11.720;2022-09-21T01:38:28;5.60;99.90
7648;DHT22;3866;48.020;11.720;2022-09-21T01:41:00;5.40;99.90
7648;DHT22;3866;48.020;11.720;2022-09-21T01:43:31;5.40;99.90
7648;DHT22;3866;48.020;11.720;2022-09-21T01:46:02;5.40;99.90
7648;DHT22;3866;48.020;11.720;2022-09-21T01:48:32;5.40;99.90
7648;DHT22;3866;48.020;11.720;2022-09-21T01:51:02;5.30;99.90
7648;DHT22;3866;48.020;11.720;2022-09-21T01:53:32;5.30;99.90
7648;DHT22;3866;48.020;11.720;2022-09-21T01:56:05;5.30;99.90
7648;DHT22;3866;48.020;11.720;2022-09-21T01:58:36;5.40;99.90
7648;DHT22;3866;48.020;11.720;2022-09-21T02:01:08;5.30;99.90
7648;DHT22;3866;48.020;11.720;2022-09-21T02:03:40;5.20;99.90
7648;DHT22;3866;48.020;11.720;2022-09-21T02:06:10;5.00;99.90
7648;DHT22;3866;48.020;11.720;2022-09-21T02:08:38;5.10;99.90
7648;DHT22;3866;48.020;11.720;2022-09-21T02:11:06;5.00;99.90
7648;DHT22;3866;48.020;11.720;2022-09-21T02:13:35;5.10;99.90
7648;DHT22;3866;48.020;11.720;2022-09-21T02:16:20;5.20;99.90
7648;DHT22;3866;48.020;11.720;2022-09-21T02:18:55;5.20;99.90
7648;DHT22;3866;48.020;11.720;2022-09-21T02:21:30;5.20;99.90
7648;DHT22;3866;48.020;11.720;2022-09-21T02:24:05;5.40;99.90
7648;DHT22;3866;48.020;11.720;2022-09-21T02:26:39;5.60;99.90
7648;DHT22;3866;48.020;11.720;2022-09-21T02:29:11;5.60;99.90
7648;DHT22;3866;48.020;11.720;2022-09-21T02:31:50;5.60;99.90
7648;DHT22;3866;48.020;11.720;2022-09-21T02:34:23;5.50;99.90
7648;DHT22;3866;48.020;11.720;2022-09-21T02:36:55;5.60;99.90
7648;DHT22;3866;48.020;11.720;2022-09-21T02:39:29;5.60;99.90
7648;DHT22;3866;48.020;11.720;2022-09-21T02:42:03;5.60;99.90
7648;DHT22;3866;48.020;11.720;2022-09-21T02:44:35;5.80;99.90
7648;DHT22;3866;48.020;11.720;2022-09-21T02:47:09;5.80;99.90
7648;DHT22;3866;48.020;11.720;2022-09-21T02:49:41;5.60;99.90
7648;DHT22;3866;48.020;11.720;2022-09-21T02:52:12;5.70;99.90
7648;DHT22;3866;48.020;11.720;2022-09-21T02:54:43;5.70;99.90
7648;DHT22;3866;48.020;11.720;2022-09-21T02:57:12;5.60;99.90
7648;DHT22;3866;48.020;11.720;2022-09-21T02:59:40;5.40;99.90
7648;DHT22;3866;48.020;11.720;2022-09-21T03:02:10;5.50;99.90
7648;DHT22;3866;48.020;11.720;2022-09-21T03:04:37;5.50;99.90
7648;DHT22;3866;48.020;11.720;2022-09-21T03:07:05;5.60;99.90
7648;DHT22;3866;48.020;11.720;2022-09-21T03:09:32;5.60;99.90
7648;DHT22;3866;48.020;11.720;2022-09-21T03:11:59;5.60;99.90
7648;DHT22;3866;48.020;11.720;2022-09-21T03:14:26;5.60;99.90
7648;DHT22;3866;48.020;11.720;2022-09-21T03:16:53;5.50;99.90
7648;DHT22;3866;48.020;11.720;2022-09-21T03:19:21;5.60;99.90
7648;DHT22;3866;48.020;11.720;2022-09-21T03:21:48;5.50;99.90
7648;DHT22;3866;48.020;11.720;2022-09-21T03:24:15;5.50;99.90
7648;DHT22;3866;48.020;11.720;2022-09-21T03:27:02;5.30;99.90
7648;DHT22;3866;48.020;11.720;2022-09-21T03:29:29;5.30;99.90
7648;DHT22;3866;48.020;11.720;2022-09-21T03:31:56;5.20;99.90
7648;DHT22;3866;48.020;11.720;2022-09-21T03:34:24;5.00;99.90
7648;DHT22;3866;48.020;11.720;2022-09-21T03:36:51;5.00;99.90
7648;DHT22;3866;48.020;11.720;2022-09-21T03:39:18;5.00;99.90
7648;DHT22;3866;48.020;11.720;2022-09-21T03:41:45;5.00;99.90
7648;DHT22;3866;48.020;11.720;2022-09-21T03:44:12;5.00;99.90
7648;DHT22;3866;48.020;11.720;2022-09-21T03:46:42;4.90;99.90
7648;DHT22;3866;48.020;11.720;2022-09-21T03:49:09;4.80;99.90
7648;DHT22;3866;48.020;11.720;2022-09-21T03:51:37;4.80;99.90
7648;DHT22;3866;48.020;11.720;2022-09-21T03:54:05;4.70;99.90
7648;DHT22;3866;48.020;11.720;2022-09-21T03:56:32;4.50;99.90
7648;DHT22;3866;48.020;11.720;2022-09-21T03:58:58;4.40;99.90
7648;DHT22;3866;48.020;11.720;2022-09-21T04:01:26;4.20;99.90
7648;DHT22;3866;48.020;11.720;2022-09-21T04:03:53;4.10;99.90
7648;DHT22;3866;48.020;11.720;2022-09-21T04:06:20;4.30;99.90
7648;DHT22;3866;48.020;11.720;2022-09-21T04:08:49;4.40;99.90
7648;DHT22;3866;48.020;11.720;2022-09-21T04:11:18;4.40;99.90
7648;DHT22;3866;48.020;11.720;2022-09-21T04:13:49;4.50;99.90
7648;DHT22;3866;48.020;11.720;2022-09-21T04:16:17;4.40;99.90
7648;DHT22;3866;48.020;11.720;2022-09-21T04:18:43;4.30;99.90
7648;DHT22;3866;48.020;11.720;2022-09-21T04:21:15;4.20;99.90
7648;DHT22;3866;48.020;11.720;2022-09-21T04:23:44;4.10;99.90
7648;DHT22;3866;48.020;11.720;2022-09-21T04:26:23;4.10;99.90
7648;DHT22;3866;48.020;11.720;2022-09-21T04:28:51;4.10;99.90
7648;DHT22;3866;48.020;11.720;2022-09-21T04:31:18;4.10;99.90
7648;DHT22;3866;48.020;11.720;2022-09-21T04:33:47;4.10;99.90
7648;DHT22;3866;48.020;11.720;2022-09-21T04:36:15;4.00;99.90
7648;DHT22;3866;48.020;11.720;2022-09-21T04:38:42;4.00;99.90
7648;DHT22;3866;48.020;11.720;2022-09-21T04:41:09;4.00;99.90
7648;DHT22;3866;48.020;11.720;2022-09-21T04:43:40;4.00;99.90
7648;DHT22;3866;48.020;11.720;2022-09-21T04:46:10;4.20;99.90
7648;DHT22;3866;48.020;11.720;2022-09-21T04:48:37;4.00;99.90
7648;DHT22;3866;48.020;11.720;2022-09-21T04:51:05;4.10;99.90
7648;DHT22;3866;48.020;11.720;2022-09-21T04:53:34;4.10;99.90
7648;DHT22;3866;48.020;11.720;2022-09-21T04:56:02;4.10;99.90
7648;DHT22;3866;48.020;11.720;2022-09-21T04:58:29;4.00;99.90
7648;DHT22;3866;48.020;11.720;2022-09-21T05:00:58;3.90;99.90
7648;DHT22;3866;48.020;11.720;2022-09-21T05:03:25;3.90;99.90
7648;DHT22;3866;48.020;11.720;2022-09-21T05:05:53;3.70;99.90
7648;DHT22;3866;48.020;11.720;2022-09-21T05:08:21;3.70;99.90
7648;DHT22;3866;48.020;11.720;2022-09-21T05:11:10;3.80;99.90
7648;DHT22;3866;48.020;11.720;2022-09-21T05:13:37;3.80;99.90
7648;DHT22;3866;48.020;11.720;2022-09-21T05:16:06;3.80;99.90
7648;DHT22;3866;48.020;11.720;2022-09-21T05:18:32;3.70;99.90
7648;DHT22;3866;48.020;11.720;2022-09-21T05:21:00;3.80;99.90
7648;DHT22;3866;48.020;11.720;2022-09-21T05:23:29;3.90;99.90
7648;DHT22;3866;48.020;11.720;2022-09-21T05:25:56;4.00;99.90
7648;DHT22;3866;48.020;11.720;2022-09-21T05:28:24;4.10;99.90
7648;DHT22;3866;48.020;11.720;2022-09-21T05:30:58;3.90;99.90
7648;DHT22;3866;48.020;11.720;2022-09-21T05:33:31;4.00;99.90
7648;DHT22;3866;48.020;11.720;2022-09-21T05:36:05;4.30;99.90
7648;DHT22;3866;48.020;11.720;2022-09-21T05:38:36;4.40;99.90
7648;DHT22;3866;48.020;11.720;2022-09-21T05:41:04;4.50;99.90
7648;DHT22;3866;48.020;11.720;2022-09-21T05:43:32;4.50;99.90
7648;DHT22;3866;48.020;11.720;2022-09-21T05:46:03;4.70;99.90
7648;DHT22;3866;48.020;11.720;2022-09-21T05:48:36;4.80;99.90
7648;DHT22;3866;48.020;11.720;2022-09-21T05:51:12;4.90;99.90
7648;DHT22;3866;48.020;11.720;2022-09-21T05:53:51;5.20;99.90
7648;DHT22;3866;48.020;11.720;2022-09-21T05:56:32;5.40;99.90
7648;DHT22;3866;48.020;11.720;2022-09-21T05:59:07;5.80;99.90
7648;DHT22;3866;48.020;11.720;2022-09-21T06:01:45;6.20;99.90
7648;DHT22;3866;48.020;11.720;2022-09-21T06:04:17;6.20;99.90
7648;DHT22;3866;48.020;11.720;2022-09-21T06:06:44;6.20;99.90
7648;DHT22;3866;48.020;11.720;2022-09-21T06:09:11;6.70;99.90
7648;DHT22;3866;48.020;11.720;2022-09-21T06:11:38;8.10;99.90
7648;DHT22;3866;48.020;11.720;2022-09-21T06:14:05;10.10;99.90
7648;DHT22;3866;48.020;11.720;2022-09-21T06:16:36;11.60;99.90
7648;DHT22;3866;48.020;11.720;2022-09-21T06:19:03;13.20;99.90
7648;DHT22;3866;48.020;11.720;2022-09-21T06:21:32;14.10;99.90
7648;DHT22;3866;48.020;11.720;2022-09-21T06:23:59;15.30;99.90
7648;DHT22;3866;48.020;11.720;2022-09-21T06:26:26;15.80;99.90
7648;DHT22;3866;48.020;11.720;2022-09-21T06:28:54;13.00;99.90
7648;DHT22;3866;48.020;11.720;2022-09-21T06:31:21;12.20;99.90
7648;DHT22;3866;48.020;11.720;2022-09-21T06:33:48;11.60;99.90
7648;DHT22;3866;48.020;11.720;2022-09-21T06:36:15;11.10;99.90
7648;DHT22;3866;48.020;11.720;2022-09-21T06:38:44;12.40;99.90
7648;DHT22;3866;48.020;11.720;2022-09-21T06:41:11;14.80;99.90
7648;DHT22;3866;48.020;11.720;2022-09-21T06:43:38;15.30;99.90
7648;DHT22;3866;48.020;11.720;2022-09-21T06:46:05;18.30;99.90
7648;DHT22;3866;48.020;11.720;2022-09-21T06:48:33;20.40;99.90
7648;DHT22;3866;48.020;11.720;2022-09-21T06:51:02;20.00;99.90
7648;DHT22;3866;48.020;11.720;2022-09-21T06:53:31;19.60;99.90
7648;DHT22;3866;48.020;11.720;2022-09-21T06:56:03;20.60;99.90
7648;DHT22;3866;48.020;11.720;2022-09-21T06:58:30;20.80;99.90
7648;DHT22;3866;48.020;11.720;2022-09-21T07:01:04;19.40;99.90
7648;DHT22;3866;48.020;11.720;2022-09-21T07:03:31;17.30;99.90
7648;DHT22;3866;48.020;11.720;2022-09-21T07:05:58;19.60;99.90
7648;DHT22;3866;48.020;11.720;2022-09-21T07:08:25;20.70;99.90
7648;DHT22;3866;48.020;11.720;2022-09-21T07:10:52;21.20;99.90
7648;DHT22;3866;48.020;11.720;2022-09-21T07:13:20;21.80;99.90
7648;DHT22;3866;48.020;11.720;2022-09-21T07:15:48;22.00;99.90
7648;DHT22;3866;48.020;11.720;2022-09-21T07:18:15;22.60;99.90
7648;DHT22;3866;48.020;11.720;2022-09-21T07:20:42;22.10;99.90
7648;DHT22;3866;48.020;11.720;2022-09-21T07:23:09;19.80;99.90
7648;DHT22;3866;48.020;11.720;2022-09-21T07:25:36;17.30;99.90
7648;DHT22;3866;48.020;11.720;2022-09-21T07:28:04;19.40;99.90
7648;DHT22;3866;48.020;11.720;2022-09-21T07:30:32;21.40;99.90
7648;DHT22;3866;48.020;11.720;2022-09-21T07:32:59;21.00;99.90
7648;DHT22;3866;48.020;11.720;2022-09-21T07:35:26;21.50;99.90
7648;DHT22;3866;48.020;11.720;2022-09-21T07:37:53;20.80;99.90
7648;DHT22;3866;48.020;11.720;2022-09-21T07:40:21;21.90;99.90
7648;DHT22;3866;48.020;11.720;2022-09-21T07:42:48;23.40;99.90
7648;DHT22;3866;48.020;11.720;2022-09-21T07:45:15;18.50;99.90
7648;DHT22;3866;48.020;11.720;2022-09-21T07:47:44;17.90;99.90
7648;DHT22;3866;48.020;11.720;2022-09-21T07:50:11;18.30;99.90
7648;DHT22;3866;48.020;11.720;2022-09-21T07:52:38;21.60;99.90
7648;DHT22;3866;48.020;11.720;2022-09-21T07:55:16;20.80;99.90
7648;DHT22;3866;48.020;11.720;2022-09-21T07:57:43;19.10;99.90
7648;DHT22;3866;48.020;11.720;2022-09-21T08:00:27;18.70;99.90
7648;DHT22;3866;48.020;11.720;2022-09-21T08:02:58;18.10;99.90
7648;DHT22;3866;48.020;11.720;2022-09-21T08:05:27;18.60;99.90
7648;DHT22;3866;48.020;11.720;2022-09-21T08:07:54;20.10;99.90
7648;DHT22;3866;48.020;11.720;2022-09-21T08:10:22;19.40;99.90
7648;DHT22;3866;48.020;11.720;2022-09-21T08:12:49;19.10;99.90
7648;DHT22;3866;48.020;11.720;2022-09-21T08:15:16;18.60;99.90
7648;DHT22;3866;48.020;11.720;2022-09-21T08:17:43;16.60;99.90
7648;DHT22;3866;48.020;11.720;2022-09-21T08:20:11;15.50;99.90
7648;DHT22;3866;48.020;11.720;2022-09-21T08:22:38;16.00;99.90
7648;DHT22;3866;48.020;11.720;2022-09-21T08:25:06;17.20;99.90
7648;DHT22;3866;48.020;11.720;2022-09-21T08:27:32;17.20;99.90
7648;DHT22;3866;48.020;11.720;2022-09-21T08:29:59;16.80;99.90
7648;DHT22;3866;48.020;11.720;2022-09-21T08:32:27;15.50;99.90
7648;DHT22;3866;48.020;11.720;2022-09-21T08:34:55;14.00;99.90
7648;DHT22;3866;48.020;11.720;2022-09-21T08:37:23;13.70;99.90
7648;DHT22;3866;48.020;11.720;2022-09-21T08:39:50;14.10;99.90
7648;DHT22;3866;48.020;11.720;2022-09-21T08:42:32;14.90;99.90
7648;DHT22;3866;48.020;11.720;2022-09-21T08:45:03;14.30;99.90
7648;DHT22;3866;48.020;11.720;2022-09-21T08:47:38;13.70;99.90
7648;DHT22;3866;48.020;11.720;2022-09-21T08:50:21;13.10;99.90
7648;DHT22;3866;48.020;11.720;2022-09-21T08:52:52;13.30;99.90
7648;DHT22;3866;48.020;11.720;2022-09-21T08:55:23;13.70;99.90
7648;DHT22;3866;48.020;11.720;2022-09-21T08:57:50;13.40;99.90
7648;DHT22;3866;48.020;11.720;2022-09-21T09:00:18;13.00;99.90
7648;DHT22;3866;48.020;11.720;2022-09-21T09:03:11;13.00;99.90
7648;DHT22;3866;48.020;11.720;2022-09-21T09:05:48;13.00;99.90
7648;DHT22;3866;48.020;11.720;2022-09-21T09:08:43;13.20;99.90
7648;DHT22;3866;48.020;11.720;2022-09-21T09:11:21;13.60;99.90
7648;DHT22;3866;48.020;11.720;2022-09-21T09:14:06;13.60;99.90
7648;DHT22;3866;48.020;11.720;2022-09-21T09:16:44;13.40;99.90
7648;DHT22;3866;48.020;11.720;2022-09-21T09:19:19;12.90;99.90
7648;DHT22;3866;48.020;11.720;2022-09-21T09:21:49;12.60;99.90
7648;DHT22;3866;48.020;11.720;2022-09-21T09:24:30;12.90;99.90
7648;DHT22;3866;48.020;11.720;2022-09-21T09:27:00;13.10;99.90
7648;DHT22;3866;48.020;11.720;2022-09-21T09:29:32;13.10;99.90
7648;DHT22;3866;48.020;11.720;2022-09-21T09:32:01;13.00;99.90
7648;DHT22;3866;48.020;11.720;2022-09-21T09:34:32;12.50;99.90
7648;DHT22;3866;48.020;11.720;2022-09-21T09:37:10;12.40;99.90
7648;DHT22;3866;48.020;11.720;2022-09-21T09:39:39;12.40;99.90
7648;DHT22;3866;48.020;11.720;2022-09-21T09:42:30;12.30;99.90
7648;DHT22;3866;48.020;11.720;2022-09-21T09:45:12;12.40;99.90
7648;DHT22;3866;48.020;11.720;2022-09-21T09:47:54;12.50;99.90
7648;DHT22;3866;48.020;11.720;2022-09-21T09:50:27;12.40;99.90
7648;DHT22;3866;48.020;11.720;2022-09-21T09:53:00;12.30;99.90
7648;DHT22;3866;48.020;11.720;2022-09-21T09:55:35;12.60;99.90
7648;DHT22;3866;48.020;11.720;2022-09-21T09:58:04;12.30;99.90
7648;DHT22;3866;48.020;11.720;2022-09-21T10:00:32;12.40;99.90
7648;DHT22;3866;48.020;11.720;2022-09-21T10:03:00;12.40;99.90
7648;DHT22;3866;48.020;11.720;2022-09-21T10:05:31;12.20;99.90
7648;DHT22;3866;48.020;11.720;2022-09-21T10:07:59;12.10;99.90
7648;DHT22;3866;48.020;11.720;2022-09-21T10:10:33;12.00;99.90
7648;DHT22;3866;48.020;11.720;2022-09-21T10:13:10;12.00;99.90
7648;DHT22;3866;48.020;11.720;2022-09-21T10:15:47;12.20;99.90
7648;DHT22;3866;48.020;11.720;2022-09-21T10:18:20;12.40;99.90
7648;DHT22;3866;48.020;11.720;2022-09-21T10:20:56;12.70;99.90
7648;DHT22;3866;48.020;11.720;2022-09-21T10:23:23;12.90;99.90
7648;DHT22;3866;48.020;11.720;2022-09-21T10:25:59;12.90;99.90
7648;DHT22;3866;48.020;11.720;2022-09-21T10:28:27;12.90;99.90
7648;DHT22;3866;48.020;11.720;2022-09-21T10:31:21;12.90;99.90
7648;DHT22;3866;48.020;11.720;2022-09-21T10:33:51;13.20;99.90
7648;DHT22;3866;48.020;11.720;2022-09-21T10:36:30;13.20;99.90
7648;DHT22;3866;48.020;11.720;2022-09-21T10:39:30;13.10;99.90
7648;DHT22;3866;48.020;11.720;2022-09-21T10:42:05;13.00;99.90
7648;DHT22;3866;48.020;11.720;2022-09-21T10:44:36;13.10;99.90
7648;DHT22;3866;48.020;11.720;2022-09-21T10:47:15;13.20;99.90
7648;DHT22;3866;48.020;11.720;2022-09-21T10:49:45;13.10;99.90
7648;DHT22;3866;48.020;11.720;2022-09-21T10:52:15;13.10;99.90
7648;DHT22;3866;48.020;11.720;2022-09-21T10:54:44;13.40;99.90
7648;DHT22;3866;48.020;11.720;2022-09-21T10:57:17;13.30;99.90
7648;DHT22;3866;48.020;11.720;2022-09-21T10:59:44;13.10;99.90
7648;DHT22;3866;48.020;11.720;2022-09-21T11:02:26;13.00;99.90
7648;DHT22;3866;48.020;11.720;2022-09-21T11:04:57;12.90;99.90
7648;DHT22;3866;48.020;11.720;2022-09-21T11:07:29;13.10;99.90
7648;DHT22;3866;48.020;11.720;2022-09-21T11:10:05;13.30;99.90
7648;DHT22;3866;48.020;11.720;2022-09-21T11:12:42;13.20;99.90
7648;DHT22;3866;48.020;11.720;2022-09-21T11:15:17;13.50;99.90
7648;DHT22;3866;48.020;11.720;2022-09-21T11:17:51;13.40;99.90
7648;DHT22;3866;48.020;11.720;2022-09-21T11:20:27;13.60;99.90
7648;DHT22;3866;48.020;11.720;2022-09-21T11:23:02;13.70;99.90
7648;DHT22;3866;48.020;11.720;2022-09-21T11:25:37;13.50;99.90
7648;DHT22;3866;48.020;11.720;2022-09-21T11:28:14;13.50;99.90
7648;DHT22;3866;48.020;11.720;2022-09-21T11:30:56;13.70;99.90
7648;DHT22;3866;48.020;11.720;2022-09-21T11:33:48;13.90;99.90
7648;DHT22;3866;48.020;11.720;2022-09-21T11:36:28;13.70;99.90
7648;DHT22;3866;48.020;11.720;2022-09-21T11:39:01;13.60;99.90
7648;DHT22;3866;48.020;11.720;2022-09-21T11:41:50;13.50;99.90
7648;DHT22;3866;48.020;11.720;2022-09-21T11:44:37;13.30;99.90
7648;DHT22;3866;48.020;11.720;2022-09-21T11:47:11;13.20;99.90
7648;DHT22;3866;48.020;11.720;2022-09-21T11:50:02;13.20;99.90
7648;DHT22;3866;48.020;11.720;2022-09-21T11:52:43;13.30;99.90
7648;DHT22;3866;48.020;11.720;2022-09-21T11:55:30;13.40;99.90
7648;DHT22;3866;48.020;11.720;2022-09-21T11:58:03;13.30;99.90
7648;DHT22;3866;48.020;11.720;2022-09-21T12:00:42;13.50;99.90
7648;DHT22;3866;48.020;11.720;2022-09-21T12:06:16;14.30;99.90
7648;DHT22;3866;48.020;11.720;2022-09-21T12:09:02;14.10;99.90
7648;DHT22;3866;48.020;11.720;2022-09-21T12:11:36;14.40;99.90
7648;DHT22;3866;48.020;11.720;2022-09-21T12:14:12;14.40;99.90
7648;DHT22;3866;48.020;11.720;2022-09-21T12:16:48;14.40;99.90
7648;DHT22;3866;48.020;11.720;2022-09-21T12:19:22;14.30;99.90
7648;DHT22;3866;48.020;11.720;2022-09-21T12:21:54;14.40;99.90
7648;DHT22;3866;48.020;11.720;2022-09-21T12:24:30;14.40;99.90
7648;DHT22;3866;48.020;11.720;2022-09-21T12:27:02;14.50;99.90
7648;DHT22;3866;48.020;11.720;2022-09-21T12:29:35;14.60;99.90
7648;DHT22;3866;48.020;11.720;2022-09-21T12:32:13;14.60;99.90
7648;DHT22;3866;48.020;11.720;2022-09-21T12:34:47;14.90;99.90
7648;DHT22;3866;48.020;11.720;2022-09-21T12:37:22;15.20;99.90
7648;DHT22;3866;48.020;11.720;2022-09-21T12:39:54;14.90;99.90
7648;DHT22;3866;48.020;11.720;2022-09-21T12:42:29;14.80;99.90
7648;DHT22;3866;48.020;11.720;2022-09-21T12:45:00;15.00;99.90
7648;DHT22;3866;48.020;11.720;2022-09-21T12:47:42;15.10;99.90
7648;DHT22;3866;48.020;11.720;2022-09-21T12:50:17;15.20;99.90
7648;DHT22;3866;48.020;11.720;2022-09-21T12:52:46;14.70;99.90
7648;DHT22;3866;48.020;11.720;2022-09-21T12:55:25;14.40;99.90
7648;DHT22;3866;48.020;11.720;2022-09-21T12:58:00;14.30;99.90
7648;DHT22;3866;48.020;11.720;2022-09-21T13:00:33;14.30;99.90
7648;DHT22;3866;48.020;11.720;2022-09-21T13:03:11;14.40;99.90
7648;DHT22;3866;48.020;11.720;2022-09-21T13:05:53;14.40;99.90
7648;DHT22;3866;48.020;11.720;2022-09-21T13:08:26;14.10;99.90
7648;DHT22;3866;48.020;11.720;2022-09-21T13:10:57;13.80;99.90
7648;DHT22;3866;48.020;11.720;2022-09-21T13:13:29;13.70;99.90
7648;DHT22;3866;48.020;11.720;2022-09-21T13:15:58;13.40;99.90
7648;DHT22;3866;48.020;11.720;2022-09-21T13:18:29;13.40;99.90
7648;DHT22;3866;48.020;11.720;2022-09-21T13:20:59;13.50;99.90
7648;DHT22;3866;48.020;11.720;2022-09-21T13:23:31;13.90;99.90
7648;DHT22;3866;48.020;11.720;2022-09-21T13:26:04;14.30;99.90
7648;DHT22;3866;48.020;11.720;2022-09-21T13:28:41;14.80;99.90
7648;DHT22;3866;48.020;11.720;2022-09-21T13:31:39;15.00;99.90
7648;DHT22;3866;48.020;11.720;2022-09-21T13:34:31;15.30;99.90
7648;DHT22;3866;48.020;11.720;2022-09-21T13:37:29;15.50;99.90
7648;DHT22;3866;48.020;11.720;2022-09-21T13:49:30;16.10;99.90
7648;DHT22;3866;48.020;11.720;2022-09-21T13:52:01;15.60;99.90
7648;DHT22;3866;48.020;11.720;2022-09-21T13:54:32;15.80;99.90
7648;DHT22;3866;48.020;11.720;2022-09-21T13:57:03;15.80;99.90
7648;DHT22;3866;48.020;11.720;2022-09-21T13:59:32;16.00;99.90
7648;DHT22;3866;48.020;11.720;2022-09-21T14:02:01;16.00;99.90
7648;DHT22;3866;48.020;11.720;2022-09-21T14:04:32;16.10;99.90
7648;DHT22;3866;48.020;11.720;2022-09-21T14:07:04;16.00;99.90
7648;DHT22;3866;48.020;11.720;2022-09-21T14:09:37;15.80;99.90
7648;DHT22;3866;48.020;11.720;2022-09-21T14:12:09;15.50;99.90
7648;DHT22;3866;48.020;11.720;2022-09-21T14:14:38;15.10;99.90
7648;DHT22;3866;48.020;11.720;2022-09-21T14:17:34;14.90;99.90
7648;DHT22;3866;48.020;11.720;2022-09-21T14:20:05;15.30;99.90
7648;DHT22;3866;48.020;11.720;2022-09-21T14:22:40;15.50;99.90
7648;DHT22;3866;48.020;11.720;2022-09-21T14:25:26;15.80;99.90
7648;DHT22;3866;48.020;11.720;2022-09-21T14:27:58;15.80;99.90
7648;DHT22;3866;48.020;11.720;2022-09-21T14:30:28;15.60;99.90
7648;DHT22;3866;48.020;11.720;2022-09-21T14:35:57;15.00;99.90
7648;DHT22;3866;48.020;11.720;2022-09-21T14:38:30;14.90;99.90
7648;DHT22;3866;48.020;11.720;2022-09-21T14:41:04;14.90;99.90
7648;DHT22;3866;48.020;11.720;2022-09-21T14:43:35;15.00;99.90
7648;DHT22;3866;48.020;11.720;2022-09-21T14:46:19;15.00;99.90
7648;DHT22;3866;48.020;11.720;2022-09-21T14:48:58;14.90;99.90
7648;DHT22;3866;48.020;11.720;2022-09-21T14:51:37;14.70;99.90
7648;DHT22;3866;48.020;11.720;2022-09-21T14:54:22;14.50;99.90
7648;DHT22;3866;48.020;11.720;2022-09-21T14:57:18;14.30;99.90
7648;DHT22;3866;48.020;11.720;2022-09-21T14:59:59;14.30;99.90
7648;DHT22;3866;48.020;11.720;2022-09-21T15:02:30;14.40;99.90
7648;DHT22;3866;48.020;11.720;2022-09-21T15:05:13;14.70;99.90
7648;DHT22;3866;48.020;11.720;2022-09-21T15:07:50;15.00;99.90
7648;DHT22;3866;48.020;11.720;2022-09-21T15:10:48;15.20;99.90
7648;DHT22;3866;48.020;11.720;2022-09-21T15:13:47;15.00;99.90
7648;DHT22;3866;48.020;11.720;2022-09-21T15:16:23;14.90;99.90
7648;DHT22;3866;48.020;11.720;2022-09-21T15:19:00;15.20;99.90
7648;DHT22;3866;48.020;11.720;2022-09-21T15:21:30;15.10;99.90
7648;DHT22;3866;48.020;11.720;2022-09-21T15:24:01;14.90;99.90
7648;DHT22;3866;48.020;11.720;2022-09-21T15:26:37;15.00;99.90
7648;DHT22;3866;48.020;11.720;2022-09-21T15:29:05;15.40;99.90
7648;DHT22;3866;48.020;11.720;2022-09-21T15:31:35;15.00;99.90
7648;DHT22;3866;48.020;11.720;2022-09-21T15:34:04;15.00;99.90
7648;DHT22;3866;48.020;11.720;2022-09-21T15:36:37;15.00;99.90
7648;DHT22;3866;48.020;11.720;2022-09-21T15:39:06;15.00;99.90
7648;DHT22;3866;48.020;11.720;2022-09-21T15:41:39;14.90;99.90
7648;DHT22;3866;48.020;11.720;2022-09-21T15:44:13;14.70;99.90
7648;DHT22;3866;48.020;11.720;2022-09-21T15:46:42;14.60;99.90
7648;DHT22;3866;48.020;11.720;2022-09-21T15:49:13;14.50;99.90
7648;DHT22;3866;48.020;11.720;2022-09-21T15:51:47;14.50;99.90
7648;DHT22;3866;48.020;11.720;2022-09-21T15:54:27;14.50;99.90
7648;DHT22;3866;48.020;11.720;2022-09-21T15:56:55;14.60;99.90
7648;DHT22;3866;48.020;11.720;2022-09-21T15:59:22;14.50;99.90
7648;DHT22;3866;48.020;11.720;2022-09-21T16:01:52;14.30;99.90
7648;DHT22;3866;48.020;11.720;2022-09-21T16:04:21;14.30;99.90
7648;DHT22;3866;48.020;11.720;2022-09-21T16:06:58;14.20;99.90
7648;DHT22;3866;48.020;11.720;2022-09-21T16:09:38;14.00;99.90
7648;DHT22;3866;48.020;11.720;2022-09-21T16:12:37;14.10;99.90
7648;DHT22;3866;48.020;11.720;2022-09-21T16:15:08;14.00;99.90
7648;DHT22;3866;48.020;11.720;2022-09-21T16:17:52;13.90;99.90
7648;DHT22;3866;48.020;11.720;2022-09-21T16:20:20;13.70;99.90
7648;DHT22;3866;48.020;11.720;2022-09-21T16:22:49;13.50;99.90
7648;DHT22;3866;48.020;11.720;2022-09-21T16:25:27;13.60;99.90
7648;DHT22;3866;48.020;11.720;2022-09-21T16:27:58;13.40;99.90
7648;DHT22;3866;48.020;11.720;2022-09-21T16:30:41;13.30;99.90
7648;DHT22;3866;48.020;11.720;2022-09-21T16:33:34;13.20;99.90
7648;DHT22;3866;48.020;11.720;2022-09-21T16:36:01;12.90;99.90
7648;DHT22;3866;48.020;11.720;2022-09-21T16:38:29;12.90;99.90
7648;DHT22;3866;48.020;11.720;2022-09-21T16:41:00;12.90;99.90
7648;DHT22;3866;48.020;11.720;2022-09-21T16:43:28;12.80;99.90
7648;DHT22;3866;48.020;11.720;2022-09-21T16:45:55;12.70;99.90